sensor_id;sensor_type;location;lat;lon;timestamp;P1;durP1;ratioP1;P2;durP2;ratioP2
65418;SDS011;52027;50.658;14.004;2022-10-16T00:00:30;6.00;;;4.05;;
65418;SDS011;52027;50.658;14.004;2022-10-16T00:02:56;5.78;;;4.05;;
65418;SDS011;52027;50.658;14.004;2022-10-16T00:05:21;6.60;;;4.32;;
65418;SDS011;52027;50.658;14.004;2022-10-16T00:07:47;5.88;;;3.95;;
65418;SDS011;52027;50.658;14.004;2022-10-16T00:10:12;5.30;;;3.95;;
65418;SDS011;52027;50.658;14.004;2022-10-16T00:12:38;6.05;;;4.25;;
65418;SDS011;52027;50.658;14.004;2022-10-16T00:15:03;6.15;;;4.32;;
65418;SDS011;52027;50.658;14.004;2022-10-16T00:17:29;6.05;;;4.28;;
65418;SDS011;52027;50.658;14.004;2022-10-16T00:19:54;6.10;;;4.25;;
65418;SDS011;52027;50.658;14.004;2022-10-16T00:22:20;6.50;;;4.57;;
65418;SDS011;52027;50.658;14.004;2022-10-16T00:24:45;6.20;;;4.50;;
65418;SDS011;52027;50.658;14.004;2022-10-16T00:27:10;6.03;;;4.22;;
65418;SDS011;52027;50.658;14.004;2022-10-16T00:29:35;7.22;;;4.57;;
65418;SDS011;52027;50.658;14.004;2022-10-16T00:32:01;6.20;;;4.30;;
65418;SDS011;52027;50.658;14.004;2022-10-16T00:34:26;6.32;;;4.30;;
65418;SDS011;52027;50.658;14.004;2022-10-16T00:36:51;6.43;;;4.38;;
65418;SDS011;52027;50.658;14.004;2022-10-16T00:39:17;6.35;;;4.25;;
65418;SDS011;52027;50.658;14.004;2022-10-16T00:41:42;5.75;;;4.25;;
65418;SDS011;52027;50.658;14.004;2022-10-16T00:47:09;6.10;;;4.10;;
65418;SDS011;52027;50.658;14.004;2022-10-16T00:49:37;7.38;;;4.72;;
65418;SDS011;52027;50.658;14.004;2022-10-16T00:52:03;6.63;;;4.57;;
65418;SDS011;52027;50.658;14.004;2022-10-16T00:54:30;6.40;;;4.35;;
65418;SDS011;52027;50.658;14.004;2022-10-16T00:56:57;6.05;;;4.22;;
65418;SDS011;52027;50.658;14.004;2022-10-16T00:59:29;6.03;;;4.30;;
65418;SDS011;52027;50.658;14.004;2022-10-16T01:01:57;5.75;;;4.18;;
65418;SDS011;52027;50.658;14.004;2022-10-16T01:04:23;6.22;;;4.30;;
65418;SDS011;52027;50.658;14.004;2022-10-16T01:09:45;6.45;;;4.25;;
65418;SDS011;52027;50.658;14.004;2022-10-16T01:15:02;6.57;;;4.38;;
65418;SDS011;52027;50.658;14.004;2022-10-16T01:20:14;6.82;;;4.38;;
65418;SDS011;52027;50.658;14.004;2022-10-16T01:23:07;6.25;;;4.32;;
65418;SDS011;52027;50.658;14.004;2022-10-16T01:31:10;6.55;;;4.57;;
65418;SDS011;52027;50.658;14.004;2022-10-16T01:33:43;6.82;;;4.63;;
65418;SDS011;52027;50.658;14.004;2022-10-16T01:36:14;6.28;;;4.50;;
65418;SDS011;52027;50.658;14.004;2022-10-16T01:38:41;7.05;;;4.50;;
65418;SDS011;52027;50.658;14.004;2022-10-16T01:41:14;6.70;;;4.55;;
65418;SDS011;52027;50.658;14.004;2022-10-16T01:43:45;7.13;;;4.60;;
65418;SDS011;52027;50.658;14.004;2022-10-16T01:46:14;7.28;;;4.50;;
65418;SDS011;52027;50.658;14.004;2022-10-16T01:48:43;7.32;;;4.55;;
65418;SDS011;52027;50.658;14.004;2022-10-16T01:51:09;6.75;;;4.70;;
65418;SDS011;52027;50.658;14.004;2022-10-16T01:53:37;7.88;;;5.00;;
65418;SDS011;52027;50.658;14.004;2022-10-16T01:56:06;6.50;;;4.45;;
65418;SDS011;52027;50.658;14.004;2022-10-16T01:58:35;6.93;;;4.63;;
65418;SDS011;52027;50.658;14.004;2022-10-16T02:01:04;8.15;;;4.88;;
65418;SDS011;52027;50.658;14.004;2022-10-16T02:03:34;6.55;;;4.65;;
65418;SDS011;52027;50.658;14.004;2022-10-16T02:06:01;6.43;;;4.60;;
65418;SDS011;52027;50.658;14.004;2022-10-16T02:08:27;6.70;;;4.70;;
65418;SDS011;52027;50.658;14.004;2022-10-16T02:10:56;7.18;;;4.80;;
65418;SDS011;52027;50.658;14.004;2022-10-16T02:13:23;6.78;;;4.38;;
65418;SDS011;52027;50.658;14.004;2022-10-16T02:15:54;6.70;;;4.50;;
65418;SDS011;52027;50.658;14.004;2022-10-16T02:18:19;7.78;;;4.72;;
65418;SDS011;52027;50.658;14.004;2022-10-16T02:20:52;6.55;;;4.60;;
65418;SDS011;52027;50.658;14.004;2022-10-16T02:23:36;6.60;;;4.55;;
65418;SDS011;52027;50.658;14.004;2022-10-16T02:26:08;6.80;;;4.65;;
65418;SDS011;52027;50.658;14.004;2022-10-16T02:28:42;6.80;;;4.55;;
65418;SDS011;52027;50.658;14.004;2022-10-16T02:31:12;6.53;;;4.50;;
65418;SDS011;52027;50.658;14.004;2022-10-16T02:33:41;6.75;;;4.63;;
65418;SDS011;52027;50.658;14.004;2022-10-16T02:36:08;8.50;;;4.78;;
65418;SDS011;52027;50.658;14.004;2022-10-16T02:38:34;6.50;;;4.65;;
65418;SDS011;52027;50.658;14.004;2022-10-16T02:41:00;6.60;;;4.55;;
65418;SDS011;52027;50.658;14.004;2022-10-16T02:43:25;7.05;;;4.38;;
65418;SDS011;52027;50.658;14.004;2022-10-16T02:45:51;7.05;;;4.57;;
65418;SDS011;52027;50.658;14.004;2022-10-16T02:48:16;6.88;;;4.82;;
65418;SDS011;52027;50.658;14.004;2022-10-16T02:50:42;6.78;;;4.75;;
65418;SDS011;52027;50.658;14.004;2022-10-16T02:53:07;6.28;;;4.53;;
65418;SDS011;52027;50.658;14.004;2022-10-16T02:55:32;7.05;;;4.65;;
65418;SDS011;52027;50.658;14.004;2022-10-16T02:57:58;6.53;;;4.55;;
65418;SDS011;52027;50.658;14.004;2022-10-16T03:00:23;6.63;;;4.63;;
65418;SDS011;52027;50.658;14.004;2022-10-16T03:02:49;6.78;;;4.63;;
65418;SDS011;52027;50.658;14.004;2022-10-16T03:05:14;7.55;;;4.90;;
65418;SDS011;52027;50.658;14.004;2022-10-16T03:07:40;6.60;;;4.70;;
65418;SDS011;52027;50.658;14.004;2022-10-16T03:10:05;7.45;;;4.93;;
65418;SDS011;52027;50.658;14.004;2022-10-16T03:12:31;6.65;;;5.00;;
65418;SDS011;52027;50.658;14.004;2022-10-16T03:14:57;7.10;;;4.65;;
65418;SDS011;52027;50.658;14.004;2022-10-16T03:17:23;7.07;;;4.95;;
65418;SDS011;52027;50.658;14.004;2022-10-16T03:19:49;6.93;;;4.70;;
65418;SDS011;52027;50.658;14.004;2022-10-16T03:22:14;6.80;;;4.63;;
65418;SDS011;52027;50.658;14.004;2022-10-16T03:24:40;7.93;;;4.93;;
65418;SDS011;52027;50.658;14.004;2022-10-16T03:27:05;7.20;;;4.70;;
65418;SDS011;52027;50.658;14.004;2022-10-16T03:29:31;7.72;;;4.93;;
65418;SDS011;52027;50.658;14.004;2022-10-16T03:31:57;7.10;;;4.72;;
65418;SDS011;52027;50.658;14.004;2022-10-16T03:34:23;7.18;;;4.93;;
65418;SDS011;52027;50.658;14.004;2022-10-16T03:36:49;7.05;;;4.68;;
65418;SDS011;52027;50.658;14.004;2022-10-16T03:39:14;7.20;;;4.80;;
65418;SDS011;52027;50.658;14.004;2022-10-16T03:41:40;7.50;;;4.68;;
65418;SDS011;52027;50.658;14.004;2022-10-16T03:44:05;8.23;;;4.97;;
65418;SDS011;52027;50.658;14.004;2022-10-16T03:46:30;7.95;;;4.78;;
65418;SDS011;52027;50.658;14.004;2022-10-16T03:48:56;6.68;;;4.80;;
65418;SDS011;52027;50.658;14.004;2022-10-16T03:51:21;7.38;;;4.90;;
65418;SDS011;52027;50.658;14.004;2022-10-16T03:53:47;6.97;;;4.80;;
65418;SDS011;52027;50.658;14.004;2022-10-16T03:56:12;7.15;;;5.07;;
65418;SDS011;52027;50.658;14.004;2022-10-16T03:58:37;7.00;;;4.70;;
65418;SDS011;52027;50.658;14.004;2022-10-16T04:01:03;7.53;;;4.90;;
65418;SDS011;52027;50.658;14.004;2022-10-16T04:03:28;7.35;;;4.78;;
65418;SDS011;52027;50.658;14.004;2022-10-16T04:05:54;6.43;;;4.50;;
65418;SDS011;52027;50.658;14.004;2022-10-16T04:08:19;6.75;;;4.90;;
65418;SDS011;52027;50.658;14.004;2022-10-16T04:10:44;7.78;;;4.97;;
65418;SDS011;52027;50.658;14.004;2022-10-16T04:13:10;7.68;;;4.95;;
65418;SDS011;52027;50.658;14.004;2022-10-16T04:15:36;7.95;;;5.10;;
65418;SDS011;52027;50.658;14.004;2022-10-16T04:18:02;8.20;;;4.95;;
65418;SDS011;52027;50.658;14.004;2022-10-16T04:20:28;7.25;;;4.75;;
65418;SDS011;52027;50.658;14.004;2022-10-16T04:22:53;6.55;;;4.57;;
65418;SDS011;52027;50.658;14.004;2022-10-16T04:25:18;7.50;;;4.90;;
65418;SDS011;52027;50.658;14.004;2022-10-16T04:27:43;6.72;;;4.78;;
65418;SDS011;52027;50.658;14.004;2022-10-16T04:30:09;6.95;;;4.65;;
65418;SDS011;52027;50.658;14.004;2022-10-16T04:32:35;8.10;;;5.00;;
65418;SDS011;52027;50.658;14.004;2022-10-16T04:35:00;6.82;;;4.90;;
65418;SDS011;52027;50.658;14.004;2022-10-16T04:37:26;7.80;;;5.30;;
65418;SDS011;52027;50.658;14.004;2022-10-16T04:39:52;6.93;;;4.78;;
65418;SDS011;52027;50.658;14.004;2022-10-16T04:42:18;6.78;;;4.70;;
65418;SDS011;52027;50.658;14.004;2022-10-16T04:44:44;7.13;;;4.90;;
65418;SDS011;52027;50.658;14.004;2022-10-16T04:47:09;7.25;;;4.85;;
65418;SDS011;52027;50.658;14.004;2022-10-16T04:49:34;7.15;;;4.70;;
65418;SDS011;52027;50.658;14.004;2022-10-16T04:52:00;7.47;;;5.00;;
65418;SDS011;52027;50.658;14.004;2022-10-16T04:54:25;7.72;;;5.07;;
65418;SDS011;52027;50.658;14.004;2022-10-16T04:56:50;6.68;;;4.70;;
65418;SDS011;52027;50.658;14.004;2022-10-16T04:59:17;7.63;;;5.00;;
65418;SDS011;52027;50.658;14.004;2022-10-16T05:01:44;6.97;;;4.68;;
65418;SDS011;52027;50.658;14.004;2022-10-16T05:04:09;7.05;;;4.82;;
65418;SDS011;52027;50.658;14.004;2022-10-16T05:06:35;6.90;;;4.85;;
65418;SDS011;52027;50.658;14.004;2022-10-16T05:09:00;7.13;;;4.70;;
65418;SDS011;52027;50.658;14.004;2022-10-16T05:11:26;7.40;;;5.05;;
65418;SDS011;52027;50.658;14.004;2022-10-16T05:13:51;8.15;;;5.10;;
65418;SDS011;52027;50.658;14.004;2022-10-16T05:16:17;7.30;;;4.95;;
65418;SDS011;52027;50.658;14.004;2022-10-16T05:18:42;7.40;;;4.80;;
65418;SDS011;52027;50.658;14.004;2022-10-16T05:21:07;7.93;;;4.95;;
65418;SDS011;52027;50.658;14.004;2022-10-16T05:23:33;6.85;;;4.50;;
65418;SDS011;52027;50.658;14.004;2022-10-16T05:25:58;7.38;;;5.00;;
65418;SDS011;52027;50.658;14.004;2022-10-16T05:28:27;6.60;;;4.53;;
65418;SDS011;52027;50.658;14.004;2022-10-16T05:30:55;7.10;;;4.88;;
65418;SDS011;52027;50.658;14.004;2022-10-16T05:33:21;7.25;;;4.88;;
65418;SDS011;52027;50.658;14.004;2022-10-16T05:35:47;7.28;;;5.10;;
65418;SDS011;52027;50.658;14.004;2022-10-16T05:38:12;7.55;;;5.00;;
65418;SDS011;52027;50.658;14.004;2022-10-16T05:40:38;7.80;;;5.25;;
65418;SDS011;52027;50.658;14.004;2022-10-16T05:43:03;7.47;;;4.75;;
65418;SDS011;52027;50.658;14.004;2022-10-16T05:45:28;7.53;;;5.10;;
65418;SDS011;52027;50.658;14.004;2022-10-16T05:47:54;6.72;;;4.50;;
65418;SDS011;52027;50.658;14.004;2022-10-16T05:50:19;7.78;;;5.10;;
65418;SDS011;52027;50.658;14.004;2022-10-16T05:52:44;7.10;;;4.80;;
65418;SDS011;52027;50.658;14.004;2022-10-16T05:55:10;7.32;;;4.80;;
65418;SDS011;52027;50.658;14.004;2022-10-16T05:57:35;7.72;;;5.00;;
65418;SDS011;52027;50.658;14.004;2022-10-16T06:00:00;7.63;;;4.75;;
65418;SDS011;52027;50.658;14.004;2022-10-16T06:02:26;7.28;;;5.03;;
65418;SDS011;52027;50.658;14.004;2022-10-16T06:04:51;7.25;;;4.70;;
65418;SDS011;52027;50.658;14.004;2022-10-16T06:07:18;7.40;;;5.10;;
65418;SDS011;52027;50.658;14.004;2022-10-16T06:09:44;7.70;;;5.07;;
65418;SDS011;52027;50.658;14.004;2022-10-16T06:12:12;7.30;;;4.85;;
65418;SDS011;52027;50.658;14.004;2022-10-16T06:14:37;6.82;;;4.70;;
65418;SDS011;52027;50.658;14.004;2022-10-16T06:17:03;7.25;;;4.90;;
65418;SDS011;52027;50.658;14.004;2022-10-16T06:19:28;7.20;;;4.70;;
65418;SDS011;52027;50.658;14.004;2022-10-16T06:21:53;7.35;;;5.00;;
65418;SDS011;52027;50.658;14.004;2022-10-16T06:24:19;7.07;;;4.93;;
65418;SDS011;52027;50.658;14.004;2022-10-16T06:26:44;7.38;;;5.05;;
65418;SDS011;52027;50.658;14.004;2022-10-16T06:29:09;6.95;;;4.72;;
65418;SDS011;52027;50.658;14.004;2022-10-16T06:31:35;7.38;;;5.00;;
65418;SDS011;52027;50.658;14.004;2022-10-16T06:34:00;7.57;;;5.25;;
65418;SDS011;52027;50.658;14.004;2022-10-16T06:36:26;7.35;;;5.00;;
65418;SDS011;52027;50.658;14.004;2022-10-16T06:38:52;6.93;;;4.70;;
65418;SDS011;52027;50.658;14.004;2022-10-16T06:41:18;7.40;;;5.03;;
65418;SDS011;52027;50.658;14.004;2022-10-16T06:43:45;7.28;;;4.72;;
65418;SDS011;52027;50.658;14.004;2022-10-16T06:46:12;7.60;;;5.00;;
65418;SDS011;52027;50.658;14.004;2022-10-16T06:48:39;6.82;;;5.10;;
65418;SDS011;52027;50.658;14.004;2022-10-16T06:51:15;7.10;;;4.80;;
65418;SDS011;52027;50.658;14.004;2022-10-16T06:53:45;8.00;;;5.30;;
65418;SDS011;52027;50.658;14.004;2022-10-16T06:56:21;6.97;;;4.82;;
65418;SDS011;52027;50.658;14.004;2022-10-16T06:58:50;7.03;;;4.70;;
65418;SDS011;52027;50.658;14.004;2022-10-16T07:01:17;7.57;;;5.03;;
65418;SDS011;52027;50.658;14.004;2022-10-16T07:03:44;7.25;;;4.78;;
65418;SDS011;52027;50.658;14.004;2022-10-16T07:06:11;7.85;;;5.15;;
65418;SDS011;52027;50.658;14.004;2022-10-16T07:08:39;7.15;;;4.93;;
65418;SDS011;52027;50.658;14.004;2022-10-16T07:11:07;8.05;;;5.28;;
65418;SDS011;52027;50.658;14.004;2022-10-16T07:13:34;7.63;;;4.97;;
65418;SDS011;52027;50.658;14.004;2022-10-16T07:16:13;7.15;;;4.97;;
65418;SDS011;52027;50.658;14.004;2022-10-16T07:18:41;7.68;;;4.90;;
65418;SDS011;52027;50.658;14.004;2022-10-16T07:21:18;7.72;;;5.20;;
65418;SDS011;52027;50.658;14.004;2022-10-16T07:23:45;7.13;;;4.90;;
65418;SDS011;52027;50.658;14.004;2022-10-16T07:26:14;6.43;;;4.68;;
65418;SDS011;52027;50.658;14.004;2022-10-16T07:28:40;6.90;;;4.85;;
65418;SDS011;52027;50.658;14.004;2022-10-16T07:31:10;7.43;;;4.90;;
65418;SDS011;52027;50.658;14.004;2022-10-16T07:33:38;6.90;;;4.80;;
65418;SDS011;52027;50.658;14.004;2022-10-16T07:36:05;7.43;;;5.00;;
65418;SDS011;52027;50.658;14.004;2022-10-16T07:38:30;7.72;;;4.97;;
65418;SDS011;52027;50.658;14.004;2022-10-16T07:40:57;7.53;;;4.75;;
65418;SDS011;52027;50.658;14.004;2022-10-16T07:43:23;7.25;;;4.90;;
65418;SDS011;52027;50.658;14.004;2022-10-16T07:45:49;7.50;;;5.05;;
65418;SDS011;52027;50.658;14.004;2022-10-16T07:48:16;6.65;;;4.88;;
65418;SDS011;52027;50.658;14.004;2022-10-16T07:50:42;6.95;;;4.90;;
65418;SDS011;52027;50.658;14.004;2022-10-16T07:53:07;6.95;;;4.93;;
65418;SDS011;52027;50.658;14.004;2022-10-16T07:55:33;7.43;;;5.10;;
65418;SDS011;52027;50.658;14.004;2022-10-16T07:57:58;8.00;;;4.95;;
65418;SDS011;52027;50.658;14.004;2022-10-16T08:00:24;7.20;;;4.97;;
65418;SDS011;52027;50.658;14.004;2022-10-16T08:02:49;7.88;;;4.97;;
65418;SDS011;52027;50.658;14.004;2022-10-16T08:05:14;7.80;;;5.10;;
65418;SDS011;52027;50.658;14.004;2022-10-16T08:07:40;7.00;;;5.07;;
65418;SDS011;52027;50.658;14.004;2022-10-16T08:10:05;8.38;;;4.97;;
65418;SDS011;52027;50.658;14.004;2022-10-16T08:12:31;6.85;;;4.75;;
65418;SDS011;52027;50.658;14.004;2022-10-16T08:14:56;6.80;;;4.60;;
65418;SDS011;52027;50.658;14.004;2022-10-16T08:17:21;7.40;;;4.90;;
65418;SDS011;52027;50.658;14.004;2022-10-16T08:19:47;6.93;;;4.90;;
65418;SDS011;52027;50.658;14.004;2022-10-16T08:22:13;7.18;;;4.80;;
65418;SDS011;52027;50.658;14.004;2022-10-16T08:24:39;8.05;;;5.10;;
65418;SDS011;52027;50.658;14.004;2022-10-16T08:27:04;7.13;;;4.78;;
65418;SDS011;52027;50.658;14.004;2022-10-16T08:29:30;6.85;;;4.93;;
65418;SDS011;52027;50.658;14.004;2022-10-16T08:31:55;6.03;;;4.38;;
65418;SDS011;52027;50.658;14.004;2022-10-16T08:34:20;6.95;;;4.70;;
65418;SDS011;52027;50.658;14.004;2022-10-16T08:36:46;7.28;;;4.97;;
65418;SDS011;52027;50.658;14.004;2022-10-16T08:39:11;6.95;;;4.80;;
65418;SDS011;52027;50.658;14.004;2022-10-16T08:46:47;6.78;;;4.72;;
65418;SDS011;52027;50.658;14.004;2022-10-16T08:49:25;7.10;;;4.95;;
65418;SDS011;52027;50.658;14.004;2022-10-16T08:51:51;6.68;;;4.75;;
65418;SDS011;52027;50.658;14.004;2022-10-16T08:54:26;6.82;;;4.70;;
65418;SDS011;52027;50.658;14.004;2022-10-16T08:57:01;6.55;;;4.53;;
65418;SDS011;52027;50.658;14.004;2022-10-16T08:59:37;6.05;;;4.47;;
65418;SDS011;52027;50.658;14.004;2022-10-16T09:02:02;6.53;;;4.70;;
65418;SDS011;52027;50.658;14.004;2022-10-16T09:04:51;6.55;;;4.80;;
65418;SDS011;52027;50.658;14.004;2022-10-16T09:07:32;6.85;;;4.68;;
65418;SDS011;52027;50.658;14.004;2022-10-16T09:10:04;6.20;;;4.40;;
65418;SDS011;52027;50.658;14.004;2022-10-16T09:12:54;6.80;;;4.57;;
65418;SDS011;52027;50.658;14.004;2022-10-16T09:15:31;6.90;;;4.72;;
65418;SDS011;52027;50.658;14.004;2022-10-16T09:23:38;6.38;;;4.30;;
65418;SDS011;52027;50.658;14.004;2022-10-16T09:26:05;8.13;;;5.00;;
65418;SDS011;52027;50.658;14.004;2022-10-16T09:28:34;6.50;;;4.72;;
65418;SDS011;52027;50.658;14.004;2022-10-16T09:31:00;7.32;;;4.80;;
65418;SDS011;52027;50.658;14.004;2022-10-16T09:33:27;6.88;;;4.70;;
65418;SDS011;52027;50.658;14.004;2022-10-16T09:35:56;7.00;;;4.90;;
65418;SDS011;52027;50.658;14.004;2022-10-16T09:38:27;7.07;;;4.80;;
65418;SDS011;52027;50.658;14.004;2022-10-16T09:40:55;7.55;;;4.60;;
65418;SDS011;52027;50.658;14.004;2022-10-16T09:43:26;7.05;;;4.88;;
65418;SDS011;52027;50.658;14.004;2022-10-16T09:46:01;7.53;;;4.72;;
65418;SDS011;52027;50.658;14.004;2022-10-16T09:48:43;6.82;;;4.57;;
65418;SDS011;52027;50.658;14.004;2022-10-16T09:51:17;7.03;;;4.63;;
65418;SDS011;52027;50.658;14.004;2022-10-16T09:53:46;6.55;;;4.45;;
65418;SDS011;52027;50.658;14.004;2022-10-16T09:56:20;7.03;;;4.50;;
65418;SDS011;52027;50.658;14.004;2022-10-16T09:59:14;6.78;;;4.70;;
65418;SDS011;52027;50.658;14.004;2022-10-16T10:06:31;6.67;;;4.70;;
65418;SDS011;52027;50.658;14.004;2022-10-16T10:11:46;6.70;;;4.68;;
65418;SDS011;52027;50.658;14.004;2022-10-16T10:16:50;6.63;;;4.53;;
65418;SDS011;52027;50.658;14.004;2022-10-16T10:19:18;6.32;;;4.47;;
65418;SDS011;52027;50.658;14.004;2022-10-16T10:21:48;6.35;;;4.57;;
65418;SDS011;52027;50.658;14.004;2022-10-16T10:24:15;6.80;;;4.72;;
65418;SDS011;52027;50.658;14.004;2022-10-16T10:35:14;6.47;;;4.30;;
65418;SDS011;52027;50.658;14.004;2022-10-16T10:40:29;6.78;;;4.30;;
65418;SDS011;52027;50.658;14.004;2022-10-16T10:43:10;6.90;;;4.53;;
65418;SDS011;52027;50.658;14.004;2022-10-16T10:46:13;6.25;;;4.30;;
65418;SDS011;52027;50.658;14.004;2022-10-16T10:51:31;6.30;;;4.40;;
65418;SDS011;52027;50.658;14.004;2022-10-16T10:59:25;6.35;;;4.22;;
65418;SDS011;52027;50.658;14.004;2022-10-16T11:07:28;6.07;;;4.30;;
65418;SDS011;52027;50.658;14.004;2022-10-16T11:09:58;5.82;;;4.28;;
65418;SDS011;52027;50.658;14.004;2022-10-16T11:12:35;6.65;;;4.20;;
65418;SDS011;52027;50.658;14.004;2022-10-16T11:15:14;6.30;;;4.30;;
65418;SDS011;52027;50.658;14.004;2022-10-16T11:17:48;5.78;;;4.28;;
65418;SDS011;52027;50.658;14.004;2022-10-16T11:23:00;6.30;;;4.30;;
65418;SDS011;52027;50.658;14.004;2022-10-16T11:25:32;5.63;;;4.00;;
65418;SDS011;52027;50.658;14.004;2022-10-16T11:30:45;6.28;;;4.25;;
65418;SDS011;52027;50.658;14.004;2022-10-16T11:35:59;6.15;;;4.07;;
65418;SDS011;52027;50.658;14.004;2022-10-16T11:38:30;6.20;;;4.38;;
65418;SDS011;52027;50.658;14.004;2022-10-16T11:46:31;5.57;;;4.10;;
65418;SDS011;52027;50.658;14.004;2022-10-16T11:49:10;5.75;;;4.07;;
65418;SDS011;52027;50.658;14.004;2022-10-16T11:51:40;6.43;;;4.22;;
65418;SDS011;52027;50.658;14.004;2022-10-16T11:54:18;5.75;;;4.00;;
65418;SDS011;52027;50.658;14.004;2022-10-16T11:56:50;5.93;;;3.95;;
65418;SDS011;52027;50.658;14.004;2022-10-16T12:05:14;5.78;;;4.03;;
65418;SDS011;52027;50.658;14.004;2022-10-16T12:07:49;6.30;;;3.92;;
65418;SDS011;52027;50.658;14.004;2022-10-16T12:10:20;6.53;;;3.85;;
65418;SDS011;52027;50.658;14.004;2022-10-16T12:12:50;5.45;;;3.75;;
65418;SDS011;52027;50.658;14.004;2022-10-16T12:15:29;5.82;;;3.80;;
65418;SDS011;52027;50.658;14.004;2022-10-16T12:17:56;5.45;;;3.78;;
65418;SDS011;52027;50.658;14.004;2022-10-16T12:20:24;5.72;;;4.03;;
65418;SDS011;52027;50.658;14.004;2022-10-16T12:22:58;5.38;;;3.80;;
65418;SDS011;52027;50.658;14.004;2022-10-16T12:30:26;5.65;;;3.97;;
65418;SDS011;52027;50.658;14.004;2022-10-16T12:32:57;5.57;;;4.03;;
65418;SDS011;52027;50.658;14.004;2022-10-16T12:35:32;5.65;;;4.00;;
65418;SDS011;52027;50.658;14.004;2022-10-16T12:41:10;5.45;;;3.90;;
65418;SDS011;52027;50.658;14.004;2022-10-16T12:43:55;5.80;;;4.05;;
65418;SDS011;52027;50.658;14.004;2022-10-16T12:46:33;5.20;;;3.55;;
65418;SDS011;52027;50.658;14.004;2022-10-16T12:51:36;6.38;;;4.20;;
65418;SDS011;52027;50.658;14.004;2022-10-16T12:54:03;5.28;;;3.85;;
65418;SDS011;52027;50.658;14.004;2022-10-16T13:09:52;5.35;;;3.70;;
65418;SDS011;52027;50.658;14.004;2022-10-16T13:12:33;5.30;;;3.67;;
65418;SDS011;52027;50.658;14.004;2022-10-16T13:15:16;5.45;;;3.70;;
65418;SDS011;52027;50.658;14.004;2022-10-16T13:18:13;5.30;;;3.60;;
65418;SDS011;52027;50.658;14.004;2022-10-16T13:20:51;5.55;;;3.75;;
65418;SDS011;52027;50.658;14.004;2022-10-16T13:23:30;4.70;;;3.45;;
65418;SDS011;52027;50.658;14.004;2022-10-16T13:31:23;5.70;;;3.75;;
65418;SDS011;52027;50.658;14.004;2022-10-16T13:33:50;5.70;;;3.90;;
65418;SDS011;52027;50.658;14.004;2022-10-16T13:36:22;5.20;;;3.63;;
65418;SDS011;52027;50.658;14.004;2022-10-16T13:41:31;5.18;;;3.55;;
65418;SDS011;52027;50.658;14.004;2022-10-16T13:43:56;5.97;;;3.83;;
65418;SDS011;52027;50.658;14.004;2022-10-16T13:46:23;5.43;;;3.70;;
65418;SDS011;52027;50.658;14.004;2022-10-16T13:51:29;5.68;;;4.05;;
65418;SDS011;52027;50.658;14.004;2022-10-16T13:53:56;5.38;;;3.72;;
65418;SDS011;52027;50.658;14.004;2022-10-16T13:56:22;4.55;;;3.40;;
65418;SDS011;52027;50.658;14.004;2022-10-16T13:58:58;6.03;;;3.97;;
65418;SDS011;52027;50.658;14.004;2022-10-16T14:01:28;5.47;;;3.75;;
65418;SDS011;52027;50.658;14.004;2022-10-16T14:04:03;5.22;;;3.65;;
65418;SDS011;52027;50.658;14.004;2022-10-16T14:06:30;5.15;;;3.60;;
65418;SDS011;52027;50.658;14.004;2022-10-16T14:11:46;5.00;;;3.47;;
65418;SDS011;52027;50.658;14.004;2022-10-16T14:14:16;4.88;;;3.60;;
65418;SDS011;52027;50.658;14.004;2022-10-16T14:16:42;4.97;;;3.47;;
65418;SDS011;52027;50.658;14.004;2022-10-16T14:19:18;4.68;;;3.38;;
65418;SDS011;52027;50.658;14.004;2022-10-16T14:21:46;5.45;;;3.80;;
65418;SDS011;52027;50.658;14.004;2022-10-16T14:24:12;5.57;;;3.80;;
65418;SDS011;52027;50.658;14.004;2022-10-16T14:26:46;5.72;;;3.70;;
65418;SDS011;52027;50.658;14.004;2022-10-16T14:29:14;4.72;;;3.40;;
65418;SDS011;52027;50.658;14.004;2022-10-16T14:31:43;5.40;;;3.53;;
65418;SDS011;52027;50.658;14.004;2022-10-16T14:34:23;5.10;;;3.53;;
65418;SDS011;52027;50.658;14.004;2022-10-16T14:36:52;5.13;;;3.75;;
65418;SDS011;52027;50.658;14.004;2022-10-16T14:39:18;5.28;;;3.83;;
65418;SDS011;52027;50.658;14.004;2022-10-16T14:41:46;5.35;;;3.72;;
65418;SDS011;52027;50.658;14.004;2022-10-16T14:44:13;5.22;;;3.40;;
65418;SDS011;52027;50.658;14.004;2022-10-16T14:46:39;5.18;;;3.50;;
65418;SDS011;52027;50.658;14.004;2022-10-16T14:51:36;5.05;;;3.45;;
65418;SDS011;52027;50.658;14.004;2022-10-16T14:54:02;5.03;;;3.33;;
65418;SDS011;52027;50.658;14.004;2022-10-16T14:56:29;4.97;;;3.40;;
65418;SDS011;52027;50.658;14.004;2022-10-16T14:58:57;4.80;;;3.50;;
65418;SDS011;52027;50.658;14.004;2022-10-16T15:01:23;5.47;;;3.60;;
65418;SDS011;52027;50.658;14.004;2022-10-16T15:03:48;4.90;;;3.40;;
65418;SDS011;52027;50.658;14.004;2022-10-16T15:06:14;4.70;;;3.17;;
65418;SDS011;52027;50.658;14.004;2022-10-16T15:08:40;5.03;;;3.55;;
65418;SDS011;52027;50.658;14.004;2022-10-16T15:11:13;4.68;;;3.15;;
65418;SDS011;52027;50.658;14.004;2022-10-16T15:13:41;4.47;;;3.38;;
65418;SDS011;52027;50.658;14.004;2022-10-16T15:16:13;4.72;;;3.50;;
65418;SDS011;52027;50.658;14.004;2022-10-16T15:18:40;5.18;;;3.40;;
65418;SDS011;52027;50.658;14.004;2022-10-16T15:21:05;5.53;;;3.60;;
65418;SDS011;52027;50.658;14.004;2022-10-16T15:23:31;4.75;;;3.50;;
65418;SDS011;52027;50.658;14.004;2022-10-16T15:25:56;5.20;;;3.58;;
65418;SDS011;52027;50.658;14.004;2022-10-16T15:28:22;4.38;;;3.38;;
65418;SDS011;52027;50.658;14.004;2022-10-16T15:30:49;5.05;;;3.40;;
65418;SDS011;52027;50.658;14.004;2022-10-16T15:33:17;5.03;;;3.40;;
65418;SDS011;52027;50.658;14.004;2022-10-16T15:35:47;4.80;;;3.45;;
65418;SDS011;52027;50.658;14.004;2022-10-16T15:38:17;5.10;;;3.50;;
65418;SDS011;52027;50.658;14.004;2022-10-16T15:40:45;4.65;;;3.33;;
65418;SDS011;52027;50.658;14.004;2022-10-16T15:43:11;4.70;;;3.35;;
65418;SDS011;52027;50.658;14.004;2022-10-16T15:45:37;5.10;;;3.63;;
65418;SDS011;52027;50.658;14.004;2022-10-16T15:48:02;4.25;;;3.15;;
65418;SDS011;52027;50.658;14.004;2022-10-16T15:50:28;5.05;;;3.40;;
65418;SDS011;52027;50.658;14.004;2022-10-16T15:52:55;4.65;;;3.28;;
65418;SDS011;52027;50.658;14.004;2022-10-16T15:55:20;4.88;;;3.30;;
65418;SDS011;52027;50.658;14.004;2022-10-16T15:57:46;4.88;;;3.42;;
65418;SDS011;52027;50.658;14.004;2022-10-16T16:00:12;4.68;;;3.22;;
65418;SDS011;52027;50.658;14.004;2022-10-16T16:02:42;5.30;;;3.50;;
65418;SDS011;52027;50.658;14.004;2022-10-16T16:05:14;4.43;;;3.20;;
65418;SDS011;52027;50.658;14.004;2022-10-16T16:07:39;4.63;;;3.20;;
65418;SDS011;52027;50.658;14.004;2022-10-16T16:10:06;4.45;;;3.15;;
65418;SDS011;52027;50.658;14.004;2022-10-16T16:12:33;4.80;;;3.20;;
65418;SDS011;52027;50.658;14.004;2022-10-16T16:14:58;4.63;;;3.28;;
65418;SDS011;52027;50.658;14.004;2022-10-16T16:17:24;5.40;;;3.50;;
65418;SDS011;52027;50.658;14.004;2022-10-16T16:19:49;4.25;;;3.10;;
65418;SDS011;52027;50.658;14.004;2022-10-16T16:22:15;5.28;;;3.58;;
65418;SDS011;52027;50.658;14.004;2022-10-16T16:24:41;4.82;;;3.30;;
65418;SDS011;52027;50.658;14.004;2022-10-16T16:27:06;4.55;;;3.30;;
65418;SDS011;52027;50.658;14.004;2022-10-16T16:29:32;4.30;;;3.03;;
65418;SDS011;52027;50.658;14.004;2022-10-16T16:31:58;4.70;;;3.15;;
65418;SDS011;52027;50.658;14.004;2022-10-16T16:34:27;4.57;;;3.20;;
65418;SDS011;52027;50.658;14.004;2022-10-16T16:36:53;4.43;;;3.13;;
65418;SDS011;52027;50.658;14.004;2022-10-16T16:39:19;4.47;;;3.10;;
65418;SDS011;52027;50.658;14.004;2022-10-16T16:41:44;4.85;;;3.30;;